Time;durP1;ratioP1;P1;durP2;ratioP2;P2;SDS_P1;SDS_P2;PMS_P1;PMS_P2;Temp;Humidity;BMP_temperature;BMP_pressure;BME280_temperature;BME280_humidity;BME280_pressure;Samples;Min_cycle;Max_cycle;Signal;HPM_P1;HPM_P2
2021/03/03 00:01:41;;;;;;;39.58;18.05;;;3.70;92.70;;;;;;5046700;28;20043;-89
2021/03/03 00:04:07;;;;;;;39.22;19.77;;;3.70;92.80;;;;;;5007111;28;20042;-90
2021/03/03 00:06:32;;;;;;;39.45;20.75;;;3.60;92.80;;;;;;4990957;28;20462;-89
2021/03/03 00:08:58;;;;;;;42.10;23.45;;;3.60;92.90;;;;;;5054244;28;20122;-89
2021/03/03 00:11:24;;;;;;;39.45;19.40;;;3.60;92.90;;;;;;5059610;28;20078;-90
2021/03/03 00:13:49;;;;;;;37.40;20.92;;;3.60;92.90;;;;;;5058213;28;20043;-90
2021/03/03 00:16:15;;;;;;;40.47;20.67;;;3.50;92.90;;;;;;5054314;28;20039;-89
2021/03/03 00:18:40;;;;;;;32.53;19.13;;;3.50;92.90;;;;;;4972609;28;20062;-89
2021/03/03 00:21:06;;;;;;;35.40;18.13;;;3.50;93.00;;;;;;4966056;28;20057;-88
2021/03/03 00:23:31;;;;;;;39.88;20.90;;;3.40;93.00;;;;;;5058540;28;20274;-89
2021/03/03 00:25:57;;;;;;;35.60;19.15;;;3.40;93.00;;;;;;5001933;28;20113;-89
2021/03/03 00:28:22;;;;;;;38.35;19.52;;;3.40;93.20;;;;;;4965757;28;20043;-88
2021/03/03 00:30:48;;;;;;;43.70;22.27;;;3.40;93.00;;;;;;4970964;28;20035;-88
2021/03/03 00:33:14;;;;;;;41.72;20.08;;;3.40;93.00;;;;;;4974427;28;20057;-89
2021/03/03 00:35:39;;;;;;;38.90;19.90;;;3.30;93.00;;;;;;4975920;28;20380;-89
2021/03/03 00:38:05;;;;;;;38.35;19.48;;;3.30;93.10;;;;;;4969156;28;20081;-89
2021/03/03 00:40:30;;;;;;;39.38;21.85;;;3.30;93.10;;;;;;4958293;28;20043;-89
2021/03/03 00:42:56;;;;;;;35.90;18.45;;;3.30;93.20;;;;;;5047188;28;20397;-89
2021/03/03 00:45:21;;;;;;;43.63;17.98;;;3.30;93.20;;;;;;4943196;28;20050;-88
2021/03/03 00:47:47;;;;;;;37.75;19.88;;;3.30;93.20;;;;;;4984914;28;20048;-90
2021/03/03 00:50:13;;;;;;;35.20;18.10;;;3.30;93.30;;;;;;4997490;28;20086;-90
2021/03/03 00:52:38;;;;;;;32.88;17.40;;;3.30;93.30;;;;;;5043264;28;20039;-88
2021/03/03 00:55:04;;;;;;;37.60;18.23;;;3.30;93.40;;;;;;5003679;28;20039;-89
2021/03/03 00:57:30;;;;;;;41.55;19.50;;;3.30;93.40;;;;;;4962330;28;20043;-88
2021/03/03 00:59:56;;;;;;;36.30;18.85;;;3.30;93.30;;;;;;4973413;28;20081;-88
2021/03/03 01:02:21;;;;;;;39.17;20.55;;;3.30;93.30;;;;;;4960613;28;20031;-89
2021/03/03 01:04:46;;;;;;;35.70;18.65;;;3.30;93.30;;;;;;4990982;28;20108;-89
2021/03/03 01:07:12;;;;;;;39.10;20.98;;;3.20;93.30;;;;;;4957674;28;20047;-90
2021/03/03 01:09:38;;;;;;;34.80;19.60;;;3.20;93.40;;;;;;4974872;28;20062;-88
2021/03/03 01:12:04;;;;;;;34.42;18.08;;;3.20;93.40;;;;;;4967289;28;20039;-89
2021/03/03 01:14:30;;;;;;;35.47;19.20;;;3.20;93.40;;;;;;4967389;28;20064;-90
2021/03/03 01:16:55;;;;;;;32.60;18.50;;;3.20;93.40;;;;;;4976551;28;20050;-90
2021/03/03 01:19:21;;;;;;;35.78;19.33;;;3.10;93.40;;;;;;4962714;28;20401;-88
2021/03/03 01:21:46;;;;;;;42.50;18.90;;;3.10;93.30;;;;;;4957913;28;20043;-88
2021/03/03 01:24:13;;;;;;;32.20;17.95;;;3.10;93.30;;;;;;5058715;28;20039;-88
2021/03/03 01:26:39;;;;;;;42.28;18.40;;;3.10;93.30;;;;;;5049812;28;20067;-88
2021/03/03 01:29:04;;;;;;;37.22;18.05;;;3.10;93.20;;;;;;4952146;28;20039;-88
2021/03/03 01:31:31;;;;;;;33.42;18.38;;;3.00;93.20;;;;;;4953392;28;20086;-89
2021/03/03 01:33:57;;;;;;;34.10;17.60;;;3.00;93.30;;;;;;4941636;28;20036;-88
2021/03/03 01:36:22;;;;;;;39.65;18.70;;;3.00;93.30;;;;;;4957955;28;20301;-89
2021/03/03 01:38:48;;;;;;;33.38;16.85;;;3.00;93.30;;;;;;5042269;28;20097;-89
2021/03/03 01:41:13;;;;;;;33.63;16.92;;;3.00;93.30;;;;;;4963601;28;20066;-89
2021/03/03 01:43:39;;;;;;;33.45;16.65;;;2.90;93.20;;;;;;4963569;28;20114;-89
2021/03/03 01:46:04;;;;;;;31.65;16.65;;;2.90;93.20;;;;;;4986332;28;20054;-89
2021/03/03 01:48:30;;;;;;;38.25;17.55;;;2.90;93.20;;;;;;5003136;28;20046;-88
2021/03/03 01:50:55;;;;;;;34.78;18.40;;;2.90;93.20;;;;;;4975124;28;20043;-89
2021/03/03 01:53:21;;;;;;;38.50;18.15;;;2.90;93.20;;;;;;4964053;28;20086;-87
2021/03/03 01:55:46;;;;;;;29.70;17.65;;;2.90;93.20;;;;;;4974840;28;20046;-89
2021/03/03 01:58:12;;;;;;;31.70;15.55;;;2.90;93.20;;;;;;5045384;28;20126;-90
2021/03/03 02:00:38;;;;;;;30.80;16.67;;;2.90;93.20;;;;;;4956156;28;20461;-89
2021/03/03 02:03:04;;;;;;;33.92;17.13;;;2.90;93.20;;;;;;4965778;28;20046;-89
2021/03/03 02:05:30;;;;;;;29.77;15.75;;;2.80;93.20;;;;;;4969783;28;20136;-89
2021/03/03 02:08:11;;;;;;;34.08;17.52;;;2.80;93.20;;;;;;4975770;28;20074;-89
2021/03/03 02:10:43;;;;;;;28.30;15.02;;;2.90;93.30;;;;;;4961786;28;20047;-89
2021/03/03 02:13:16;;;;;;;29.27;16.07;;;2.80;93.30;;;;;;4969079;28;20056;-88
2021/03/03 02:15:44;;;;;;;30.42;17.23;;;2.80;93.30;;;;;;4971319;28;20291;-90
2021/03/03 02:18:11;;;;;;;28.75;16.83;;;2.80;93.30;;;;;;4956675;28;20053;-90
2021/03/03 02:21:08;;;;;;;35.30;17.85;;;2.80;93.30;;;;;;5057416;28;20051;-90
2021/03/03 02:24:05;;;;;;;35.95;17.15;;;2.80;93.20;;;;;;4989348;28;20096;-90
2021/03/03 02:26:35;;;;;;;32.63;15.65;;;2.70;93.20;;;;;;5056466;28;20571;-88
2021/03/03 02:29:03;;;;;;;31.52;16.08;;;2.70;93.20;;;;;;4990430;28;20070;-88
2021/03/03 02:31:30;;;;;;;36.53;17.92;;;2.70;93.30;;;;;;5000435;28;20042;-89
2021/03/03 02:33:57;;;;;;;34.10;17.48;;;2.70;93.30;;;;;;4961409;28;20050;-87
2021/03/03 02:36:23;;;;;;;31.98;18.08;;;2.70;93.30;;;;;;4960939;28;20109;-87
2021/03/03 02:38:49;;;;;;;34.92;16.38;;;2.70;93.30;;;;;;4975611;28;20038;-88
2021/03/03 02:41:16;;;;;;;31.17;17.17;;;2.70;93.30;;;;;;5003478;28;20055;-89
2021/03/03 02:43:43;;;;;;;31.20;17.35;;;2.70;93.30;;;;;;4964747;28;20053;-89
2021/03/03 02:46:09;;;;;;;31.85;16.35;;;2.70;93.20;;;;;;5056211;28;20386;-89
2021/03/03 02:48:35;;;;;;;34.30;17.77;;;2.60;93.30;;;;;;4990435;28;20046;-88
2021/03/03 02:51:01;;;;;;;35.80;17.23;;;2.60;93.30;;;;;;4956518;28;20096;-87
2021/03/03 02:53:26;;;;;;;29.17;16.60;;;2.60;93.30;;;;;;5053905;28;20043;-88
2021/03/03 02:55:52;;;;;;;28.85;16.88;;;2.60;93.30;;;;;;5004148;28;20159;-89
2021/03/03 02:58:20;;;;;;;37.72;17.00;;;2.60;93.30;;;;;;4965841;28;20050;-89
2021/03/03 03:00:47;;;;;;;32.47;16.80;;;2.60;93.30;;;;;;4964422;28;20415;-89
2021/03/03 03:03:39;;;;;;;28.20;15.95;;;2.50;93.10;;;;;;4956157;28;20042;-88
2021/03/03 03:06:09;;;;;;;30.50;16.38;;;2.50;93.10;;;;;;4961928;28;20031;-89
2021/03/03 03:08:37;;;;;;;33.22;16.77;;;2.50;93.10;;;;;;4972350;28;20050;-88
2021/03/03 03:11:05;;;;;;;29.95;16.02;;;2.50;93.10;;;;;;4969691;28;20039;-89
2021/03/03 03:13:33;;;;;;;32.80;15.68;;;2.40;93.10;;;;;;4973184;28;20043;-88
2021/03/03 03:16:01;;;;;;;28.70;16.65;;;2.40;93.20;;;;;;4966368;28;20517;-89
2021/03/03 03:18:40;;;;;;;30.80;17.38;;;2.40;93.20;;;;;;4962862;28;20050;-89
2021/03/03 03:21:07;;;;;;;27.70;14.57;;;2.40;93.20;;;;;;4975102;28;20046;-89
2021/03/03 03:23:33;;;;;;;31.67;16.30;;;2.40;93.20;;;;;;4958544;28;20035;-90
2021/03/03 03:26:00;;;;;;;28.00;15.73;;;2.40;93.20;;;;;;4954722;28;20035;-88
2021/03/03 03:28:26;;;;;;;30.63;15.77;;;2.40;93.20;;;;;;4964123;28;20057;-88
2021/03/03 03:30:52;;;;;;;31.45;15.55;;;2.40;93.20;;;;;;4969473;28;20332;-90
2021/03/03 03:33:18;;;;;;;31.75;16.92;;;2.30;93.20;;;;;;4978588;28;20039;-90
2021/03/03 03:35:44;;;;;;;30.10;15.55;;;2.30;93.20;;;;;;4977045;28;20127;-89
2021/03/03 03:38:11;;;;;;;32.55;16.30;;;2.30;93.30;;;;;;4962467;28;20404;-88
2021/03/03 03:40:36;;;;;;;26.20;15.20;;;2.30;93.20;;;;;;4960239;28;20100;-89
2021/03/03 03:43:04;;;;;;;31.13;14.98;;;2.30;93.20;;;;;;4966761;28;20038;-89
2021/03/03 03:45:32;;;;;;;30.55;15.57;;;2.30;93.20;;;;;;4978407;28;20096;-90
2021/03/03 03:47:59;;;;;;;35.58;15.88;;;2.30;93.20;;;;;;4977783;28;20085;-89
2021/03/03 03:50:26;;;;;;;30.42;14.23;;;2.30;93.20;;;;;;4973184;28;20050;-90
2021/03/03 03:52:56;;;;;;;34.13;19.38;;;2.30;93.20;;;;;;4991901;28;20034;-89
2021/03/03 03:55:36;;;;;;;25.90;15.10;;;2.20;93.20;;;;;;5000850;28;20097;-89
2021/03/03 03:58:03;;;;;;;36.58;15.88;;;2.20;93.20;;;;;;5000361;28;20126;-89
2021/03/03 04:00:30;;;;;;;27.30;14.82;;;2.20;93.30;;;;;;4975085;28;20058;-90
2021/03/03 04:02:56;;;;;;;27.60;15.48;;;2.20;93.30;;;;;;4962738;28;20035;-86
2021/03/03 04:05:22;;;;;;;31.02;15.00;;;2.20;93.30;;;;;;4968557;28;20109;-88
2021/03/03 04:07:48;;;;;;;33.03;16.88;;;2.20;93.30;;;;;;4970523;28;20529;-88
2021/03/03 04:10:17;;;;;;;30.13;16.17;;;2.10;93.30;;;;;;4972575;28;20043;-88
2021/03/03 04:12:42;;;;;;;30.13;16.45;;;2.20;93.30;;;;;;4978530;28;20078;-89
2021/03/03 04:15:09;;;;;;;30.48;15.98;;;2.10;93.30;;;;;;4965506;28;20063;-89
2021/03/03 04:17:36;;;;;;;29.80;15.35;;;2.10;93.40;;;;;;4961154;28;20043;-89
2021/03/03 04:20:02;;;;;;;26.85;15.35;;;2.10;93.40;;;;;;5001695;28;20096;-88
2021/03/03 04:22:28;;;;;;;26.88;14.55;;;2.10;93.40;;;;;;4976472;28;20070;-89
2021/03/03 04:24:53;;;;;;;27.25;14.85;;;2.10;93.40;;;;;;4976775;28;20137;-89
2021/03/03 04:27:19;;;;;;;30.65;15.30;;;2.10;93.30;;;;;;4972720;28;20053;-89
2021/03/03 04:29:44;;;;;;;30.05;15.98;;;2.10;93.40;;;;;;4976174;28;20039;-89
2021/03/03 04:32:10;;;;;;;31.25;15.90;;;2.10;93.30;;;;;;5040709;28;20044;-90
2021/03/03 04:34:35;;;;;;;29.40;14.27;;;2.10;93.70;;;;;;5001541;28;20047;-89
2021/03/03 04:37:00;;;;;;;27.60;13.57;;;2.10;94.10;;;;;;4971015;28;20051;-88
2021/03/03 04:39:26;;;;;;;27.70;13.65;;;2.10;94.70;;;;;;4959978;28;20039;-88
2021/03/03 04:41:51;;;;;;;25.90;12.02;;;2.20;94.80;;;;;;4965454;28;20292;-89
2021/03/03 04:44:17;;;;;;;28.02;12.98;;;2.30;95.10;;;;;;4977649;28;20042;-88
2021/03/03 04:46:43;;;;;;;30.00;14.13;;;2.30;95.40;;;;;;4961936;28;20399;-88
2021/03/03 04:49:08;;;;;;;32.95;14.27;;;2.40;95.70;;;;;;5039087;28;20460;-89
2021/03/03 04:51:37;;;;;;;30.20;13.23;;;2.50;95.60;;;;;;4954739;28;20088;-90
2021/03/03 04:54:03;;;;;;;22.10;12.57;;;2.60;95.60;;;;;;4973492;28;20107;-89
2021/03/03 04:56:28;;;;;;;28.40;13.43;;;2.80;95.40;;;;;;4963864;28;20107;-89
2021/03/03 04:58:54;;;;;;;25.17;13.25;;;2.90;95.20;;;;;;4977159;28;20051;-89
2021/03/03 05:01:20;;;;;;;28.35;12.40;;;2.90;95.20;;;;;;4966548;28;20047;-89
2021/03/03 05:03:46;;;;;;;25.77;13.80;;;3.00;95.00;;;;;;5059654;28;20035;-89
2021/03/03 05:06:11;;;;;;;24.58;12.35;;;3.10;94.80;;;;;;5057115;28;20062;-89
2021/03/03 05:08:37;;;;;;;23.60;12.30;;;3.10;94.70;;;;;;5004827;28;20121;-89
2021/03/03 05:11:02;;;;;;;21.70;11.88;;;3.20;94.60;;;;;;5054599;28;20381;-89
2021/03/03 05:13:28;;;;;;;27.75;12.88;;;3.20;94.30;;;;;;4948478;28;20054;-89
2021/03/03 05:15:53;;;;;;;31.02;12.18;;;3.20;94.10;;;;;;4966981;28;20042;-89
2021/03/03 05:18:19;;;;;;;24.77;12.40;;;3.30;93.80;;;;;;4976423;28;20051;-89
2021/03/03 05:20:45;;;;;;;27.35;12.52;;;3.30;93.70;;;;;;4975785;28;20042;-90
2021/03/03 05:23:10;;;;;;;22.23;12.63;;;3.30;93.60;;;;;;4972982;28;20042;-89
2021/03/03 05:25:37;;;;;;;22.40;12.80;;;3.30;93.70;;;;;;4977445;28;20046;-90
2021/03/03 05:28:02;;;;;;;22.30;12.00;;;3.30;93.70;;;;;;4961662;28;20460;-89
2021/03/03 05:30:28;;;;;;;18.52;10.80;;;3.30;93.40;;;;;;5050652;28;20075;-89
2021/03/03 05:32:55;;;;;;;18.70;10.52;;;3.30;93.40;;;;;;4966979;28;20046;-89
2021/03/03 05:35:21;;;;;;;18.67;10.60;;;3.30;93.30;;;;;;5004698;28;20432;-89
2021/03/03 05:37:47;;;;;;;18.48;9.52;;;3.40;93.10;;;;;;5058663;28;20107;-90
2021/03/03 05:40:14;;;;;;;20.33;10.75;;;3.40;93.00;;;;;;4943170;28;20066;-90
2021/03/03 05:42:39;;;;;;;19.08;10.07;;;3.40;92.80;;;;;;4967588;28;20031;-91
2021/03/03 05:45:07;;;;;;;19.83;10.05;;;3.40;93.10;;;;;;4989311;28;20309;-89
2021/03/03 05:47:34;;;;;;;18.42;10.27;;;3.50;92.70;;;;;;4961686;28;20461;-90
2021/03/03 05:50:02;;;;;;;17.55;10.02;;;3.50;92.60;;;;;;5056246;28;20194;-89
2021/03/03 05:52:31;;;;;;;20.60;11.80;;;3.50;92.60;;;;;;4960329;28;20460;-89
2021/03/03 05:54:57;;;;;;;19.52;10.18;;;3.50;92.40;;;;;;4998907;28;20043;-88
2021/03/03 05:57:23;;;;;;;20.42;10.48;;;3.60;92.20;;;;;;4965225;28;20069;-88
2021/03/03 05:59:49;;;;;;;20.05;9.93;;;3.60;92.10;;;;;;4954667;28;20085;-89
2021/03/03 06:02:15;;;;;;;16.50;9.23;;;3.60;92.10;;;;;;4956028;28;20040;-90
2021/03/03 06:04:41;;;;;;;19.10;9.05;;;3.70;92.00;;;;;;4958107;28;20159;-88
2021/03/03 06:07:07;;;;;;;19.92;9.48;;;3.70;92.00;;;;;;4961720;28;20122;-88
2021/03/03 06:09:33;;;;;;;16.70;9.50;;;3.70;91.80;;;;;;4955473;28;20412;-88
2021/03/03 06:11:59;;;;;;;16.40;9.68;;;3.70;91.60;;;;;;4954901;28;20039;-88
2021/03/03 06:14:24;;;;;;;18.58;9.05;;;3.80;91.50;;;;;;4954590;28;20510;-89
2021/03/03 06:16:54;;;;;;;16.23;8.77;;;3.80;91.40;;;;;;4958464;28;20125;-88
2021/03/03 06:19:19;;;;;;;17.73;9.65;;;3.80;91.40;;;;;;4952601;28;20031;-88
2021/03/03 06:21:45;;;;;;;18.42;10.13;;;3.80;91.40;;;;;;4956479;28;20073;-88
2021/03/03 06:24:11;;;;;;;20.42;10.13;;;3.80;91.50;;;;;;4960522;28;20031;-88
2021/03/03 06:26:54;;;;;;;15.90;8.95;;;3.80;91.40;;;;;;4991269;28;20030;-90
2021/03/03 06:29:20;;;;;;;18.75;9.27;;;3.80;91.40;;;;;;4968414;28;20034;-88
2021/03/03 06:31:47;;;;;;;18.30;9.50;;;3.80;91.50;;;;;;4973892;28;20092;-88
2021/03/03 06:34:18;;;;;;;17.65;8.23;;;3.80;91.50;;;;;;4963262;28;20108;-90
2021/03/03 06:36:47;;;;;;;17.00;9.32;;;3.80;91.40;;;;;;4963749;28;20054;-90
2021/03/03 06:39:18;;;;;;;17.77;9.93;;;3.80;91.50;;;;;;4966670;28;20037;-89
2021/03/03 06:41:43;;;;;;;17.55;9.07;;;3.90;91.50;;;;;;4960439;28;20042;-88
2021/03/03 06:44:09;;;;;;;17.52;9.10;;;3.90;91.40;;;;;;5042819;28;20040;-87
2021/03/03 06:46:34;;;;;;;18.25;9.23;;;3.90;92.30;;;;;;4958395;28;20353;-89
2021/03/03 06:49:00;;;;;;;20.38;9.77;;;4.00;92.40;;;;;;4957699;28;20039;-87
2021/03/03 06:51:30;;;;;;;12.93;8.02;;;4.20;91.30;;;;;;4961965;28;20416;-87
2021/03/03 06:53:58;;;;;;;18.45;8.77;;;4.20;91.00;;;;;;4960958;28;20043;-87
2021/03/03 06:56:39;;;;;;;19.52;8.90;;;4.30;90.50;;;;;;5068959;28;20113;-87
2021/03/03 06:59:20;;;;;;;20.58;9.15;;;4.40;90.40;;;;;;4972798;28;20070;-88
2021/03/03 07:01:56;;;;;;;14.90;9.55;;;4.40;90.40;;;;;;5023770;28;20025;-87
2021/03/03 07:04:21;;;;;;;16.38;8.77;;;4.40;90.30;;;;;;4975821;28;20046;-87
2021/03/03 07:06:47;;;;;;;17.63;9.25;;;4.40;90.20;;;;;;4974101;28;20034;-88
2021/03/03 07:09:13;;;;;;;20.08;9.43;;;4.50;90.10;;;;;;4972067;28;20134;-88
2021/03/03 07:11:43;;;;;;;16.80;8.32;;;4.50;90.10;;;;;;4956453;28;20039;-87
2021/03/03 07:14:17;;;;;;;13.18;8.55;;;4.50;89.80;;;;;;4953703;28;20570;-88
2021/03/03 07:17:16;;;;;;;15.57;8.70;;;4.60;90.00;;;;;;5052889;28;20320;-88
2021/03/03 07:19:46;;;;;;;20.23;9.55;;;4.70;89.70;;;;;;4961885;28;20051;-87
2021/03/03 07:22:23;;;;;;;19.15;8.50;;;4.70;89.50;;;;;;4958183;28;20397;-87
2021/03/03 07:25:03;;;;;;;14.15;8.45;;;4.80;89.00;;;;;;4966239;28;20100;-88
2021/03/03 07:27:30;;;;;;;17.25;9.25;;;4.80;89.10;;;;;;4970302;28;20582;-86
2021/03/03 07:30:01;;;;;;;17.20;8.93;;;4.90;88.80;;;;;;4938888;28;20581;-87
2021/03/03 07:32:27;;;;;;;22.05;9.48;;;4.90;88.90;;;;;;4958803;28;20055;-87
2021/03/03 07:34:56;;;;;;;16.42;8.65;;;5.00;88.50;;;;;;4964376;28;20039;-87
2021/03/03 07:37:24;;;;;;;19.48;8.25;;;5.10;88.20;;;;;;4959632;28;20043;-88
2021/03/03 07:40:00;;;;;;;17.95;8.38;;;5.20;88.10;;;;;;4971989;28;20053;-86
2021/03/03 07:42:30;;;;;;;18.65;9.73;;;5.20;87.90;;;;;;4956380;28;20096;-85
2021/03/03 07:44:58;;;;;;;13.75;8.10;;;5.30;87.30;;;;;;4953131;28;20118;-87
2021/03/03 07:47:26;;;;;;;16.48;9.98;;;5.30;87.30;;;;;;5012454;28;20295;-86
2021/03/03 07:49:54;;;;;;;18.75;8.68;;;5.40;86.90;;;;;;5054030;28;20045;-87
2021/03/03 07:52:21;;;;;;;19.55;9.35;;;5.50;86.80;;;;;;5054672;28;20070;-88
2021/03/03 07:54:46;;;;;;;18.05;8.95;;;5.60;86.30;;;;;;4959010;28;20493;-87
2021/03/03 07:57:14;;;;;;;17.60;8.77;;;5.70;86.50;;;;;;4970460;28;20070;-86
2021/03/03 07:59:44;;;;;;;19.50;9.40;;;5.70;86.50;;;;;;4969836;28;20046;-87
2021/03/03 08:02:11;;;;;;;16.45;9.05;;;5.80;85.70;;;;;;4955613;28;20043;-87
2021/03/03 08:04:41;;;;;;;15.07;8.90;;;5.80;85.70;;;;;;4971446;28;20285;-86
2021/03/03 08:07:17;;;;;;;19.38;9.30;;;5.90;85.30;;;;;;4971071;28;20129;-88
2021/03/03 08:10:07;;;;;;;17.75;8.65;;;6.00;84.60;;;;;;4956143;28;20047;-88
2021/03/03 08:12:32;;;;;;;16.50;8.05;;;6.10;84.60;;;;;;4961659;28;20070;-88
2021/03/03 08:14:58;;;;;;;15.32;8.48;;;6.20;84.60;;;;;;5052907;28;20443;-87
2021/03/03 08:17:27;;;;;;;14.40;7.55;;;6.20;84.60;;;;;;4972664;28;20060;-88
2021/03/03 08:19:58;;;;;;;15.93;8.25;;;6.30;84.00;;;;;;4974938;28;20047;-88
2021/03/03 08:22:47;;;;;;;13.88;8.57;;;6.40;83.80;;;;;;4957982;28;20039;-87
2021/03/03 08:25:32;;;;;;;16.00;9.95;;;6.60;83.90;;;;;;4971227;28;20034;-88
2021/03/03 08:27:58;;;;;;;14.32;7.78;;;6.60;83.20;;;;;;4957891;28;20069;-87
2021/03/03 08:30:23;;;;;;;15.13;8.20;;;6.80;83.50;;;;;;4959699;28;20047;-94
2021/03/03 08:32:49;;;;;;;15.10;8.98;;;6.80;82.70;;;;;;4966701;28;20111;-91
2021/03/03 08:35:39;;;;;;;16.45;8.10;;;6.90;82.00;;;;;;4978105;28;20035;-92
2021/03/03 08:38:15;;;;;;;17.27;8.55;;;7.00;81.80;;;;;;4940196;28;20413;-91
2021/03/03 08:40:41;;;;;;;13.43;8.10;;;7.10;82.50;;;;;;4939674;28;20675;-92
2021/03/03 08:43:33;;;;;;;12.52;7.35;;;7.20;81.70;;;;;;4940168;28;20042;-95
2021/03/03 11:28:31;;;;;;;12.40;7.85;;;13.40;67.50;;;;;;4939027;28;20055;-94
2021/03/03 11:30:56;;;;;;;16.83;8.45;;;13.40;67.20;;;;;;4980707;28;20039;-90
2021/03/03 11:33:23;;;;;;;19.35;8.05;;;13.40;69.00;;;;;;4966324;28;20100;-90
2021/03/03 11:53:06;;;;;;;20.98;10.23;;;13.60;68.20;;;;;;4940486;29;20086;-89
2021/03/03 11:55:32;;;;;;;17.40;9.45;;;13.60;68.50;;;;;;4945074;28;20076;-88
2021/03/03 11:57:57;;;;;;;14.35;8.70;;;13.70;69.10;;;;;;4886904;28;20068;-89
2021/03/03 12:00:23;;;;;;;15.10;9.23;;;13.70;68.70;;;;;;4882876;28;20040;-89
2021/03/03 12:02:48;;;;;;;16.67;8.88;;;13.70;67.90;;;;;;4883182;28;20060;-89
2021/03/03 12:05:14;;;;;;;13.82;8.82;;;13.70;68.30;;;;;;4930190;28;20061;-88
2021/03/03 12:08:11;;;;;;;16.48;9.02;;;13.80;68.50;;;;;;4968065;28;20101;-95
2021/03/03 12:10:46;;;;;;;16.73;9.05;;;13.90;68.30;;;;;;4958294;28;20138;-89
2021/03/03 12:13:15;;;;;;;16.90;9.27;;;14.10;68.10;;;;;;4939546;28;20035;-90
2021/03/03 12:15:43;;;;;;;18.08;8.45;;;14.20;68.00;;;;;;4990092;28;20035;-91
2021/03/03 12:18:34;;;;;;;16.25;8.98;;;14.20;68.10;;;;;;4970981;28;20075;-93
2021/03/03 12:21:03;;;;;;;15.57;9.00;;;14.30;68.00;;;;;;4939210;28;20042;-91
2021/03/03 12:23:28;;;;;;;16.80;9.68;;;14.30;67.30;;;;;;4952751;28;20035;-90
2021/03/03 12:26:07;;;;;;;15.88;8.55;;;14.30;68.00;;;;;;4974859;28;20050;-90
2021/03/03 12:28:33;;;;;;;15.05;8.90;;;14.40;67.60;;;;;;4942840;28;20127;-90
2021/03/03 12:31:01;;;;;;;18.98;9.73;;;14.40;67.10;;;;;;5069683;28;20121;-90
2021/03/03 12:33:34;;;;;;;14.95;8.70;;;14.40;66.30;;;;;;4958231;28;20047;-93
2021/03/03 12:36:00;;;;;;;16.95;9.93;;;14.40;66.20;;;;;;4968589;28;20050;-90
2021/03/03 12:38:26;;;;;;;16.23;9.38;;;14.30;66.20;;;;;;4962953;28;20043;-89
2021/03/03 12:40:54;;;;;;;19.25;11.10;;;14.30;66.70;;;;;;4969596;28;20050;-89
2021/03/03 12:43:20;;;;;;;15.55;10.02;;;14.30;68.20;;;;;;4960110;28;20270;-90
2021/03/03 12:45:54;;;;;;;15.90;9.93;;;14.30;67.00;;;;;;5055405;28;20051;-91
2021/03/03 12:48:21;;;;;;;17.90;9.77;;;14.40;67.30;;;;;;4949692;28;20035;-89
2021/03/03 12:50:53;;;;;;;21.05;9.30;;;14.60;67.20;;;;;;4957257;28;20078;-90
2021/03/03 12:53:19;;;;;;;17.90;9.70;;;14.60;65.70;;;;;;5015039;28;20141;-90
2021/03/03 12:55:45;;;;;;;18.40;9.50;;;14.80;67.00;;;;;;4975590;28;20345;-90
2021/03/03 12:58:11;;;;;;;15.77;9.60;;;14.90;65.60;;;;;;4960927;28;20070;-91
2021/03/03 13:00:36;;;;;;;17.85;9.35;;;15.10;65.80;;;;;;4964699;28;20078;-91
2021/03/03 13:03:03;;;;;;;19.52;9.20;;;15.20;64.10;;;;;;4965496;28;20073;-89
2021/03/03 13:05:28;;;;;;;18.33;10.00;;;15.30;65.10;;;;;;5056785;28;20046;-91
2021/03/03 13:07:54;;;;;;;15.63;9.40;;;15.50;65.90;;;;;;4991292;28;20043;-90
2021/03/03 13:10:20;;;;;;;16.60;9.60;;;15.60;64.50;;;;;;4956844;28;20051;-90
2021/03/03 13:12:45;;;;;;;12.70;8.55;;;15.70;64.60;;;;;;4957547;28;20078;-91
2021/03/03 13:15:11;;;;;;;12.07;8.10;;;15.70;64.40;;;;;;4959940;28;20038;-90
2021/03/03 13:17:38;;;;;;;15.32;9.18;;;15.80;64.00;;;;;;4970096;28;20039;-90
2021/03/03 13:20:06;;;;;;;18.92;10.30;;;15.80;63.10;;;;;;4958459;28;20138;-88
2021/03/03 13:22:33;;;;;;;17.85;9.20;;;15.80;62.40;;;;;;4974729;28;20039;-90
2021/03/03 13:24:59;;;;;;;25.10;9.57;;;15.80;62.10;;;;;;4976134;28;20041;-88
2021/03/03 13:27:25;;;;;;;16.23;8.05;;;15.80;61.70;;;;;;4977157;28;20039;-88
2021/03/03 13:29:50;;;;;;;14.60;8.30;;;15.70;61.40;;;;;;4966177;28;20035;-89
2021/03/03 13:32:24;;;;;;;17.10;10.10;;;15.60;61.80;;;;;;4984037;28;20043;-89
2021/03/03 13:34:49;;;;;;;14.45;9.05;;;15.60;62.30;;;;;;4968655;28;20034;-88
2021/03/03 13:37:15;;;;;;;18.55;8.45;;;15.60;62.80;;;;;;4957465;28;20043;-88
2021/03/03 13:39:41;;;;;;;16.20;8.13;;;15.60;63.30;;;;;;4971647;28;20129;-88
2021/03/03 13:42:07;;;;;;;15.23;8.93;;;15.70;63.60;;;;;;4956208;28;20042;-89
2021/03/03 13:44:33;;;;;;;16.10;9.40;;;15.80;63.40;;;;;;4961839;28;20184;-90
2021/03/03 13:46:58;;;;;;;17.58;9.15;;;15.90;62.70;;;;;;4961136;28;20121;-90
2021/03/03 13:49:26;;;;;;;15.98;8.40;;;16.00;61.60;;;;;;4974570;28;20050;-88
2021/03/03 13:51:52;;;;;;;16.00;9.05;;;16.10;60.70;;;;;;5059418;28;20039;-88
2021/03/03 13:54:18;;;;;;;13.77;8.02;;;16.10;59.70;;;;;;4962616;28;20057;-90
2021/03/03 13:56:44;;;;;;;14.30;8.32;;;16.20;59.50;;;;;;5056685;28;20043;-89
2021/03/03 13:59:10;;;;;;;15.65;8.63;;;16.20;59.80;;;;;;4951883;28;20050;-89
2021/03/03 14:01:37;;;;;;;17.05;9.35;;;16.30;59.40;;;;;;4956890;28;20321;-89
2021/03/03 14:04:03;;;;;;;17.45;8.55;;;16.30;59.30;;;;;;4940208;28;20031;-88
2021/03/03 14:06:29;;;;;;;12.07;8.13;;;16.30;58.40;;;;;;4953808;28;20042;-88
2021/03/03 14:08:55;;;;;;;13.18;8.10;;;16.30;58.30;;;;;;4973726;28;20113;-89
2021/03/03 14:11:20;;;;;;;11.15;8.43;;;16.20;60.00;;;;;;4953616;28;20472;-89
2021/03/03 14:13:46;;;;;;;14.20;8.55;;;16.20;59.60;;;;;;4956058;28;20130;-89
2021/03/03 14:16:14;;;;;;;16.50;9.10;;;16.10;59.00;;;;;;4962689;28;20123;-89
2021/03/03 14:18:42;;;;;;;20.08;7.93;;;16.10;59.60;;;;;;4959166;28;20101;-88
2021/03/03 14:21:07;;;;;;;13.10;7.30;;;16.00;58.70;;;;;;4954090;28;20122;-89
2021/03/03 14:23:33;;;;;;;16.40;7.38;;;15.90;58.20;;;;;;4960238;28;20477;-87
2021/03/03 14:25:59;;;;;;;14.15;7.88;;;15.80;58.70;;;;;;4956930;28;20447;-89
2021/03/03 14:28:24;;;;;;;12.30;7.45;;;15.80;59.60;;;;;;4956298;28;20498;-89
2021/03/03 14:31:28;;;;;;;12.80;8.25;;;15.70;59.20;;;;;;4956015;28;20400;-95
2021/03/03 14:33:53;;;;;;;;;;;15.70;59.20;;;;;;5057120;28;20078;-88
2021/03/03 14:36:19;;;;;;;15.00;8.10;;;15.60;59.60;;;;;;4955936;28;19965;-88
2021/03/03 14:38:45;;;;;;;17.25;8.95;;;15.50;60.30;;;;;;4955252;28;20099;-88
2021/03/03 14:41:10;;;;;;;14.05;8.18;;;15.50;61.40;;;;;;4955359;28;20077;-87
2021/03/03 14:43:36;;;;;;;16.27;8.32;;;15.50;61.40;;;;;;5041556;28;20452;-88
2021/03/03 14:46:01;;;;;;;18.02;8.45;;;15.50;61.70;;;;;;4936752;28;20039;-87
2021/03/03 14:48:27;;;;;;;18.73;8.50;;;15.50;61.30;;;;;;4943795;28;20036;-88
2021/03/03 14:50:52;;;;;;;16.25;8.52;;;15.50;60.70;;;;;;5047634;28;20036;-89
2021/03/03 14:53:18;;;;;;;15.73;8.95;;;15.40;61.50;;;;;;5057129;28;20040;-88
2021/03/03 14:55:44;;;;;;;16.42;9.18;;;15.40;62.00;;;;;;5056072;28;20033;-89
2021/03/03 14:58:09;;;;;;;24.02;8.98;;;15.50;62.90;;;;;;5056406;28;20288;-88
2021/03/03 15:00:35;;;;;;;17.40;9.43;;;15.50;62.30;;;;;;5056714;28;20060;-88
2021/03/03 15:03:01;;;;;;;14.63;7.70;;;15.60;61.00;;;;;;5056334;28;20087;-87
2021/03/03 15:05:26;;;;;;;16.90;7.88;;;15.70;60.80;;;;;;4972334;28;20093;-88
2021/03/03 15:07:52;;;;;;;16.60;9.77;;;15.80;61.30;;;;;;5056235;28;20043;-88
2021/03/03 15:10:28;;;;;;;;;;;;;;;;;;;;;
2021/03/03 15:12:54;;;;;;;16.10;9.25;;;15.80;60.90;;;;;;4959435;28;20039;-88
2021/03/03 15:15:19;;;;;;;16.92;8.93;;;15.90;59.80;;;;;;4953997;28;20126;-87
2021/03/03 15:17:46;;;;;;;14.15;7.85;;;15.90;58.40;;;;;;4937221;28;20077;-90
2021/03/03 15:20:13;;;;;;;18.05;8.45;;;15.80;58.30;;;;;;5036615;28;20051;-88
2021/03/03 15:22:38;;;;;;;16.92;6.90;;;15.80;58.50;;;;;;4946179;28;20301;-89
2021/03/03 15:25:05;;;;;;;14.10;7.10;;;15.90;57.40;;;;;;4968036;28;20027;-88
2021/03/03 15:27:31;;;;;;;14.52;7.50;;;16.00;57.00;;;;;;4974148;28;20070;-89
2021/03/03 15:30:43;;;;;;;15.23;7.35;;;16.00;56.10;;;;;;4976691;28;20070;-94
2021/03/03 15:33:09;;;;;;;15.00;6.97;;;16.00;56.00;;;;;;4936730;28;20039;-90
2021/03/03 15:35:39;;;;;;;14.38;6.82;;;15.90;56.10;;;;;;5041805;28;20060;-90
2021/03/03 15:38:06;;;;;;;13.98;7.45;;;15.80;55.50;;;;;;4955713;28;20070;-89
2021/03/03 15:40:34;;;;;;;13.32;6.55;;;15.70;54.70;;;;;;4955780;28;20051;-89
2021/03/03 15:43:09;;;;;;;13.18;6.13;;;15.70;55.30;;;;;;4952803;28;20036;-90
2021/03/03 15:45:53;;;;;;;12.00;5.85;;;15.50;54.40;;;;;;4968369;28;20070;-94